Time;durP1;ratioP1;P1;durP2;ratioP2;P2;SDS_P1;SDS_P2;PMS_P1;PMS_P2;Temp;Humidity;BMP_temperature;BMP_pressure;BME280_temperature;BME280_humidity;BME280_pressure;Samples;Min_cycle;Max_cycle;Signal;HPM_P1;HPM_P2
2023/05/12 00:00:03;;;;;;;2.53;1.17;;;12.00;99.90;;;;;;5084621;28;20632;-64
2023/05/12 00:02:30;;;;;;;2.70;1.10;;;11.90;99.90;;;;;;5071510;28;20220;-64
2023/05/12 00:04:55;;;;;;;2.27;1.13;;;11.90;99.90;;;;;;5083947;28;20176;-64
2023/05/12 00:07:21;;;;;;;10.00;1.65;;;11.90;99.90;;;;;;5084409;28;20210;-64
2023/05/12 00:09:47;;;;;;;3.50;1.20;;;11.90;99.90;;;;;;5084422;28;20180;-65
2023/05/12 00:12:13;;;;;;;2.60;1.20;;;11.90;99.90;;;;;;5070735;28;20189;-65
2023/05/12 00:14:38;;;;;;;1.77;1.07;;;12.00;99.90;;;;;;5083241;28;20172;-65
2023/05/12 00:17:05;;;;;;;4.87;1.43;;;12.00;99.90;;;;;;5091103;28;20172;-64
2023/05/12 00:19:35;;;;;;;4.13;1.47;;;11.80;99.90;;;;;;5087334;28;20210;-64
2023/05/12 00:22:01;;;;;;;1.80;1.23;;;11.80;99.90;;;;;;5082973;28;20172;-64
2023/05/12 00:24:26;;;;;;;2.87;1.43;;;11.80;99.90;;;;;;5090916;28;20175;-65
2023/05/12 00:26:53;;;;;;;3.60;1.70;;;11.80;99.90;;;;;;5075869;28;20224;-64
2023/05/12 00:29:18;;;;;;;5.50;2.63;;;11.80;99.90;;;;;;5070816;28;20180;-65
2023/05/12 00:31:44;;;;;;;5.43;2.50;;;11.80;99.90;;;;;;5070805;28;20690;-64
2023/05/12 00:34:10;;;;;;;4.17;2.30;;;11.80;99.90;;;;;;5070639;28;20228;-64
2023/05/12 00:36:36;;;;;;;5.27;2.30;;;11.90;99.90;;;;;;5070615;28;20164;-65
2023/05/12 00:39:02;;;;;;;3.90;2.00;;;12.00;99.90;;;;;;5089231;28;20957;-64
2023/05/12 00:41:28;;;;;;;3.63;1.80;;;11.90;99.90;;;;;;5090842;28;20172;-65
2023/05/12 00:43:53;;;;;;;5.43;1.83;;;11.90;99.90;;;;;;5090909;28;20175;-65
2023/05/12 00:46:20;;;;;;;2.10;1.60;;;11.80;99.90;;;;;;5090799;28;20170;-65
2023/05/12 00:48:46;;;;;;;4.20;1.90;;;11.80;99.90;;;;;;5090749;28;20203;-65
2023/05/12 00:51:14;;;;;;;3.53;2.07;;;11.70;99.90;;;;;;5090814;28;20187;-64
2023/05/12 00:53:40;;;;;;;8.17;2.60;;;11.60;99.90;;;;;;5090738;28;20625;-65
2023/05/12 00:56:07;;;;;;;5.60;2.30;;;11.50;99.90;;;;;;5090762;28;20171;-65
2023/05/12 00:58:32;;;;;;;4.70;1.83;;;11.50;99.90;;;;;;5090880;28;20182;-65
2023/05/12 01:00:58;;;;;;;3.13;1.70;;;11.40;99.90;;;;;;5093461;28;20243;-65
2023/05/12 01:03:23;;;;;;;3.77;1.97;;;11.40;99.90;;;;;;5094571;28;20167;-60
2023/05/12 01:06:00;;;;;;;3.33;1.83;;;11.30;99.90;;;;;;5094506;28;20172;-66
2023/05/12 01:08:26;;;;;;;4.00;1.70;;;11.30;99.90;;;;;;5094375;28;20214;-65
2023/05/12 01:10:51;;;;;;;4.07;1.73;;;11.30;99.90;;;;;;5094547;28;20179;-64
2023/05/12 01:13:17;;;;;;;4.17;1.70;;;11.30;99.90;;;;;;5094362;28;20593;-60
2023/05/12 01:15:46;;;;;;;5.20;1.70;;;11.30;99.90;;;;;;5094307;28;20179;-60
2023/05/12 01:18:14;;;;;;;1.67;1.57;;;11.30;99.90;;;;;;5094244;28;20172;-60
2023/05/12 01:20:42;;;;;;;3.37;2.00;;;11.20;99.90;;;;;;5094262;28;20267;-63
2023/05/12 01:23:09;;;;;;;4.60;2.00;;;11.30;99.90;;;;;;5094499;28;20219;-63
2023/05/12 01:25:38;;;;;;;6.43;2.50;;;11.10;99.90;;;;;;5094162;28;20221;-64
2023/05/12 01:28:04;;;;;;;5.40;2.23;;;11.10;99.90;;;;;;5094185;28;20294;-63
2023/05/12 01:30:31;;;;;;;7.43;2.33;;;11.10;99.90;;;;;;5094039;28;20203;-63
2023/05/12 01:32:57;;;;;;;2.40;1.67;;;11.10;99.90;;;;;;5094077;28;20640;-63
2023/05/12 01:35:22;;;;;;;3.20;2.17;;;11.10;99.90;;;;;;5093815;28;20211;-63
2023/05/12 01:37:48;;;;;;;3.93;1.87;;;11.10;99.90;;;;;;5094026;28;20172;-64
2023/05/12 01:40:14;;;;;;;3.80;2.20;;;11.10;99.90;;;;;;5093774;28;20527;-63
2023/05/12 01:42:41;;;;;;;5.50;2.47;;;11.10;99.90;;;;;;5093888;28;20180;-63
2023/05/12 01:45:08;;;;;;;2.70;2.17;;;11.20;99.90;;;;;;5093945;28;20176;-63
2023/05/12 01:47:33;;;;;;;4.90;3.10;;;11.30;99.90;;;;;;5093691;28;20234;-64
2023/05/12 01:49:59;;;;;;;5.83;3.47;;;11.30;99.90;;;;;;5093649;28;20636;-64
2023/05/12 01:52:25;;;;;;;4.83;3.50;;;11.40;99.90;;;;;;5093757;28;20172;-63
2023/05/12 01:54:50;;;;;;;4.67;3.27;;;11.40;99.90;;;;;;5093687;28;20671;-63
2023/05/12 01:57:16;;;;;;;5.27;3.30;;;11.50;99.90;;;;;;5093732;28;20172;-63
2023/05/12 01:59:42;;;;;;;7.00;3.23;;;11.50;99.90;;;;;;5093456;28;20632;-63
2023/05/12 02:02:08;;;;;;;6.10;3.43;;;11.50;99.90;;;;;;5093420;28;20168;-63
2023/05/12 02:04:33;;;;;;;6.10;3.70;;;11.50;99.90;;;;;;5093394;28;20172;-63
2023/05/12 02:07:00;;;;;;;5.20;2.60;;;11.50;99.90;;;;;;5093152;28;20215;-63
2023/05/12 02:09:26;;;;;;;6.00;3.77;;;11.40;99.90;;;;;;5093307;28;20633;-63
2023/05/12 02:11:51;;;;;;;10.63;3.43;;;11.50;99.90;;;;;;5093267;28;20178;-63
2023/05/12 02:14:17;;;;;;;4.73;3.43;;;11.40;99.90;;;;;;5092927;28;20640;-63
2023/05/12 02:16:43;;;;;;;4.70;3.13;;;11.40;99.90;;;;;;5093220;28;20221;-60
2023/05/12 02:19:08;;;;;;;6.87;4.20;;;11.30;99.90;;;;;;5092996;28;20263;-61
2023/05/12 02:21:34;;;;;;;5.47;3.60;;;11.40;99.90;;;;;;5093128;28;20610;-61
2023/05/12 02:23:59;;;;;;;5.80;3.40;;;11.40;99.90;;;;;;5093214;28;20180;-61
2023/05/12 02:26:25;;;;;;;4.67;3.70;;;11.30;99.90;;;;;;5092766;28;20176;-61
2023/05/12 02:28:50;;;;;;;6.73;3.37;;;11.30;99.90;;;;;;5092898;28;20204;-61
2023/05/12 02:31:16;;;;;;;9.20;4.03;;;11.30;99.90;;;;;;5092893;28;20575;-60
2023/05/12 02:33:42;;;;;;;5.30;3.73;;;11.40;99.90;;;;;;5092657;28;20212;-60
2023/05/12 02:36:08;;;;;;;6.20;3.80;;;11.30;99.90;;;;;;5092868;28;20168;-60
2023/05/12 02:38:33;;;;;;;6.57;4.20;;;11.30;99.90;;;;;;5074700;28;20541;-60
2023/05/12 02:40:59;;;;;;;6.10;3.80;;;11.30;99.90;;;;;;5092822;28;20628;-61
2023/05/12 02:43:25;;;;;;;9.23;4.17;;;11.20;99.90;;;;;;5092635;28;20632;-60
2023/05/12 02:45:50;;;;;;;7.23;4.30;;;11.20;99.90;;;;;;5092570;28;20707;-60
2023/05/12 02:48:16;;;;;;;9.17;4.40;;;11.20;99.90;;;;;;5092422;28;20211;-61
2023/05/12 02:50:42;;;;;;;6.57;3.90;;;11.20;99.90;;;;;;5092361;28;20166;-61
2023/05/12 02:53:07;;;;;;;5.47;4.03;;;11.10;99.90;;;;;;5092402;28;20184;-60
2023/05/12 02:55:33;;;;;;;5.83;4.17;;;11.10;99.90;;;;;;5092484;28;20266;-60
2023/05/12 02:57:59;;;;;;;8.37;4.30;;;11.10;99.90;;;;;;5092361;28;20172;-61
2023/05/12 03:00:24;;;;;;;6.37;4.40;;;11.10;99.90;;;;;;5092275;28;20172;-62
2023/05/12 03:02:50;;;;;;;6.87;4.47;;;11.00;99.90;;;;;;5091975;28;20171;-61
2023/05/12 03:05:16;;;;;;;6.87;4.50;;;11.00;99.90;;;;;;5092513;28;20451;-61
2023/05/12 03:07:41;;;;;;;6.47;4.57;;;11.00;99.90;;;;;;5092352;28;20302;-60
2023/05/12 03:10:09;;;;;;;7.07;4.70;;;11.00;99.90;;;;;;5092026;28;20666;-61
2023/05/12 03:12:35;;;;;;;6.60;4.50;;;11.00;99.90;;;;;;5092010;28;20675;-62
2023/05/12 03:15:03;;;;;;;6.43;4.23;;;10.90;99.90;;;;;;5073803;28;20191;-61
2023/05/12 03:17:29;;;;;;;6.60;5.07;;;10.90;99.90;;;;;;5091546;28;20171;-61
2023/05/12 03:19:54;;;;;;;6.57;4.77;;;10.80;99.90;;;;;;5091256;28;20263;-61
2023/05/12 03:22:20;;;;;;;8.00;4.93;;;10.80;99.90;;;;;;5082363;28;20181;-61
2023/05/12 03:24:46;;;;;;;8.63;5.60;;;10.80;99.90;;;;;;5071522;28;20183;-61
2023/05/12 03:27:11;;;;;;;8.30;5.33;;;10.80;99.90;;;;;;5071358;28;20208;-62
2023/05/12 03:29:37;;;;;;;9.37;5.43;;;10.80;99.90;;;;;;5071664;28;20225;-62
2023/05/12 03:32:02;;;;;;;8.40;5.30;;;10.70;99.90;;;;;;5071462;28;20257;-62
2023/05/12 03:34:28;;;;;;;8.03;5.17;;;10.80;99.90;;;;;;5071283;28;20228;-62
2023/05/12 03:36:54;;;;;;;8.40;5.90;;;10.80;99.90;;;;;;5071407;28;20164;-62
2023/05/12 03:39:22;;;;;;;8.83;5.80;;;10.80;99.90;;;;;;5083483;28;20679;-61
2023/05/12 03:41:47;;;;;;;7.97;5.60;;;10.80;99.90;;;;;;5090802;28;20172;-62
2023/05/12 03:44:13;;;;;;;12.77;6.20;;;10.80;99.90;;;;;;5084391;28;20514;-62
2023/05/12 03:46:38;;;;;;;9.77;6.00;;;10.80;99.90;;;;;;5071040;28;20176;-62
2023/05/12 03:49:04;;;;;;;9.27;6.80;;;10.80;99.90;;;;;;5075459;28;20207;-62
2023/05/12 03:51:30;;;;;;;10.80;7.57;;;10.90;99.90;;;;;;5088736;28;20233;-62
2023/05/12 03:53:55;;;;;;;13.63;8.93;;;10.90;99.90;;;;;;5071037;28;20182;-62
2023/05/12 03:56:21;;;;;;;13.80;10.17;;;11.10;99.90;;;;;;5071195;28;20529;-62
2023/05/12 03:58:47;;;;;;;16.70;11.40;;;11.20;99.90;;;;;;5078705;28;20225;-62
2023/05/12 04:01:13;;;;;;;14.57;11.10;;;11.30;99.90;;;;;;5078359;28;20591;-62
2023/05/12 04:03:40;;;;;;;15.70;11.80;;;11.40;99.90;;;;;;5088423;28;20720;-62
2023/05/12 04:06:06;;;;;;;16.80;12.80;;;11.40;99.90;;;;;;5089672;28;20173;-62
2023/05/12 04:08:32;;;;;;;17.87;13.10;;;11.40;99.90;;;;;;5071828;28;20273;-62
2023/05/12 04:11:00;;;;;;;17.80;13.00;;;11.50;99.90;;;;;;5090546;28;20176;-62
2023/05/12 04:13:30;;;;;;;19.43;13.73;;;11.50;99.90;;;;;;5075922;28;20318;-62
2023/05/12 04:15:59;;;;;;;17.87;12.83;;;11.60;99.90;;;;;;5090592;28;20260;-62
2023/05/12 04:18:26;;;;;;;18.40;13.63;;;11.60;99.90;;;;;;5083127;28;20180;-62
2023/05/12 04:20:52;;;;;;;18.30;13.13;;;11.70;99.90;;;;;;5070912;28;20173;-63
2023/05/12 04:23:18;;;;;;;18.20;14.00;;;11.70;99.90;;;;;;5075701;28;20208;-63
2023/05/12 04:25:44;;;;;;;22.07;13.93;;;11.60;99.90;;;;;;5090811;28;20254;-63
2023/05/12 04:28:10;;;;;;;21.80;14.63;;;11.60;99.90;;;;;;5090735;28;20611;-63
2023/05/12 04:30:38;;;;;;;18.33;13.70;;;11.60;99.90;;;;;;5091258;28;20640;-63
2023/05/12 04:33:04;;;;;;;21.00;13.30;;;11.70;99.90;;;;;;5090959;28;20648;-63
2023/05/12 04:35:29;;;;;;;18.40;13.77;;;11.60;99.90;;;;;;5092964;28;20255;-63
2023/05/12 04:37:55;;;;;;;18.40;14.13;;;11.70;99.90;;;;;;5095212;28;20534;-62
2023/05/12 04:40:21;;;;;;;18.10;13.57;;;11.80;99.90;;;;;;5094870;28;20651;-63
2023/05/12 04:42:46;;;;;;;18.40;12.87;;;11.70;99.90;;;;;;5094927;28;20194;-62
2023/05/12 04:45:12;;;;;;;19.33;13.53;;;11.70;99.90;;;;;;5095136;28;20691;-62
2023/05/12 04:47:37;;;;;;;18.37;13.53;;;11.80;99.90;;;;;;5094790;28;20700;-62
2023/05/12 04:50:04;;;;;;;18.43;14.17;;;11.80;99.90;;;;;;5095064;28;20258;-60
2023/05/12 04:52:30;;;;;;;18.87;14.77;;;11.80;99.90;;;;;;5076938;28;20183;-58
2023/05/12 04:54:56;;;;;;;21.00;13.40;;;11.80;99.90;;;;;;5094751;28;20171;-61
2023/05/12 04:57:22;;;;;;;20.37;13.67;;;11.80;99.90;;;;;;5076573;28;20675;-60
2023/05/12 04:59:47;;;;;;;18.83;13.27;;;11.70;99.90;;;;;;5094670;28;20168;-60
2023/05/12 05:02:13;;;;;;;20.67;13.87;;;11.70;99.90;;;;;;5094626;28;20250;-60
2023/05/12 05:04:39;;;;;;;19.77;13.10;;;11.70;99.90;;;;;;5094689;28;20705;-60
2023/05/12 05:07:04;;;;;;;17.77;12.97;;;11.80;99.90;;;;;;5094396;28;20656;-60
2023/05/12 05:09:30;;;;;;;18.30;13.53;;;11.80;99.90;;;;;;5094474;28;20249;-60
2023/05/12 05:11:56;;;;;;;15.33;12.53;;;11.80;99.90;;;;;;5094406;28;20538;-60
2023/05/12 05:14:21;;;;;;;18.03;13.60;;;11.80;99.90;;;;;;5094439;28;20255;-60
2023/05/12 05:16:47;;;;;;;17.10;12.93;;;11.80;99.90;;;;;;5094273;28;20176;-60
2023/05/12 05:19:14;;;;;;;16.70;13.43;;;11.80;99.90;;;;;;5076046;28;20195;-60
2023/05/12 05:21:40;;;;;;;20.90;12.73;;;11.90;99.90;;;;;;5094216;28;20200;-60
2023/05/12 05:24:06;;;;;;;18.00;12.57;;;12.30;99.90;;;;;;5089850;28;20281;-60
2023/05/12 05:26:32;;;;;;;18.17;13.27;;;11.90;99.90;;;;;;5085261;28;20180;-62
2023/05/12 05:28:57;;;;;;;18.00;13.20;;;11.90;99.90;;;;;;5088636;28;20216;-62
2023/05/12 05:31:23;;;;;;;21.37;13.80;;;11.80;99.90;;;;;;5087364;28;20250;-62
2023/05/12 05:33:49;;;;;;;17.03;13.13;;;11.90;99.90;;;;;;5093915;28;20221;-62
2023/05/12 05:36:15;;;;;;;19.10;13.63;;;11.90;99.90;;;;;;5081359;28;20208;-62
2023/05/12 05:38:41;;;;;;;18.97;13.20;;;12.00;99.90;;;;;;5085594;28;20217;-62
2023/05/12 05:41:06;;;;;;;19.83;13.50;;;12.00;99.90;;;;;;5081766;28;20184;-62
2023/05/12 05:43:32;;;;;;;19.10;12.13;;;11.80;99.90;;;;;;5093858;28;20172;-62
2023/05/12 05:45:58;;;;;;;17.47;13.07;;;12.00;99.90;;;;;;5093068;28;20237;-62
2023/05/12 05:48:24;;;;;;;18.47;13.33;;;12.00;99.90;;;;;;5093675;28;20737;-62
2023/05/12 05:50:51;;;;;;;19.10;12.83;;;12.00;99.90;;;;;;5093595;28;20572;-62
2023/05/12 05:53:17;;;;;;;19.30;13.17;;;12.00;99.90;;;;;;5093716;28;20179;-63
2023/05/12 05:55:43;;;;;;;17.87;13.50;;;12.00;99.90;;;;;;5093541;28;20182;-63
2023/05/12 05:58:09;;;;;;;18.57;13.53;;;12.00;99.90;;;;;;5093533;28;20160;-59
2023/05/12 06:00:35;;;;;;;18.00;13.37;;;12.00;99.90;;;;;;5092182;28;20175;-59
2023/05/12 06:03:01;;;;;;;19.50;13.93;;;12.00;99.90;;;;;;5093364;28;20263;-59
2023/05/12 06:05:26;;;;;;;18.67;12.60;;;12.10;99.90;;;;;;5087688;28;20595;-60
2023/05/12 06:07:52;;;;;;;17.83;12.87;;;12.00;99.90;;;;;;5087463;28;20223;-59
2023/05/12 06:10:18;;;;;;;17.23;12.50;;;12.10;99.90;;;;;;5072469;28;20173;-61
2023/05/12 06:12:43;;;;;;;17.20;12.47;;;12.10;99.90;;;;;;5074118;28;20183;-60
2023/05/12 06:15:09;;;;;;;18.00;12.40;;;12.20;99.90;;;;;;5072868;28;20246;-59
2023/05/12 06:17:35;;;;;;;17.53;11.73;;;12.20;99.90;;;;;;5084622;28;20184;-59
2023/05/12 06:20:01;;;;;;;17.10;12.20;;;12.20;99.90;;;;;;5093060;28;20707;-59
2023/05/12 06:22:27;;;;;;;16.83;11.53;;;12.30;99.90;;;;;;5090613;28;20249;-63
2023/05/12 06:24:53;;;;;;;16.60;11.37;;;12.40;99.90;;;;;;5087074;28;20247;-60
2023/05/12 06:27:18;;;;;;;17.50;11.10;;;12.50;99.90;;;;;;5085898;28;20199;-61
2023/05/12 06:29:44;;;;;;;16.47;11.50;;;12.60;99.90;;;;;;5081410;28;20610;-61
2023/05/12 06:32:09;;;;;;;15.55;11.38;;;12.70;99.90;;;;;;5088045;28;20206;-61
2023/05/12 06:34:35;;;;;;;16.40;11.55;;;12.80;99.90;;;;;;5072309;28;20242;-61
2023/05/12 06:37:01;;;;;;;15.60;11.15;;;12.80;99.90;;;;;;5072587;28;20633;-61
2023/05/12 06:39:26;;;;;;;16.75;10.85;;;13.20;99.90;;;;;;5073165;28;20653;-62
2023/05/12 06:41:52;;;;;;;15.97;10.70;;;13.00;99.90;;;;;;5091073;28;20186;-62
2023/05/12 06:44:17;;;;;;;15.70;11.30;;;13.30;99.90;;;;;;5092422;28;20225;-62
2023/05/12 06:46:43;;;;;;;12.98;10.18;;;13.30;99.90;;;;;;5092427;28;20160;-62
2023/05/12 06:49:09;;;;;;;17.48;9.27;;;13.50;99.90;;;;;;5091393;28;20264;-62
2023/05/12 06:51:35;;;;;;;16.48;9.80;;;13.60;99.90;;;;;;5092148;28;20172;-66
2023/05/12 06:54:01;;;;;;;14.90;9.90;;;13.60;99.90;;;;;;5091853;28;20264;-66
2023/05/12 06:56:30;;;;;;;12.68;9.20;;;13.70;99.90;;;;;;5092179;28;20672;-65
2023/05/12 06:59:01;;;;;;;14.90;9.48;;;13.70;99.90;;;;;;5091181;28;20184;-65
2023/05/12 07:01:28;;;;;;;14.73;9.07;;;13.80;99.90;;;;;;5090682;28;20198;-65
2023/05/12 07:03:53;;;;;;;17.05;9.38;;;13.90;99.90;;;;;;5073069;28;20269;-65
2023/05/12 07:06:19;;;;;;;15.60;8.77;;;13.90;99.90;;;;;;5054318;28;20648;-64
2023/05/12 07:08:45;;;;;;;17.38;9.00;;;13.80;99.90;;;;;;5071855;28;20208;-66
2023/05/12 07:11:11;;;;;;;15.60;8.90;;;14.00;99.90;;;;;;5071772;28;20171;-64
2023/05/12 07:13:37;;;;;;;15.60;8.20;;;14.00;99.90;;;;;;5082569;28;20254;-64
2023/05/12 07:16:03;;;;;;;15.45;8.63;;;13.80;99.90;;;;;;5091945;28;20259;-66
2023/05/12 07:18:29;;;;;;;18.30;8.35;;;13.90;99.90;;;;;;5084388;28;20179;-65
2023/05/12 07:20:54;;;;;;;21.77;8.73;;;14.00;99.90;;;;;;5087860;28;20540;-66
2023/05/12 07:23:20;;;;;;;20.13;9.18;;;14.00;99.90;;;;;;5080479;28;20184;-66
2023/05/12 07:25:46;;;;;;;18.38;9.43;;;13.90;99.90;;;;;;5089051;28;20904;-66
2023/05/12 07:28:12;;;;;;;20.10;8.13;;;14.00;99.90;;;;;;5078152;28;20206;-67
2023/05/12 07:30:38;;;;;;;17.55;8.10;;;14.20;99.90;;;;;;5091781;28;20167;-67
2023/05/12 07:33:04;;;;;;;14.95;8.45;;;14.10;99.90;;;;;;5080149;28;20222;-66
2023/05/12 07:35:30;;;;;;;15.07;7.35;;;14.10;99.90;;;;;;5088056;28;20381;-64
2023/05/12 07:37:56;;;;;;;17.67;8.02;;;14.40;99.90;;;;;;5082055;28;20632;-65
2023/05/12 07:40:21;;;;;;;16.90;8.73;;;14.60;99.90;;;;;;5091514;28;20164;-65
2023/05/12 07:42:47;;;;;;;15.90;7.60;;;14.80;99.90;;;;;;5090555;28;20260;-66
2023/05/12 07:45:13;;;;;;;16.27;7.65;;;14.80;99.90;;;;;;5071094;28;20507;-63
2023/05/12 07:47:38;;;;;;;14.30;6.97;;;14.80;99.90;;;;;;5070878;28;20295;-60
2023/05/12 07:50:05;;;;;;;14.05;7.22;;;14.90;99.90;;;;;;5075913;28;20187;-59
2023/05/12 07:52:32;;;;;;;14.00;7.13;;;15.00;99.90;;;;;;5082827;28;20168;-60
2023/05/12 07:54:58;;;;;;;13.38;7.00;;;14.90;99.90;;;;;;5077154;28;20177;-59
2023/05/12 07:57:24;;;;;;;15.05;6.85;;;14.70;99.90;;;;;;5087661;28;20232;-62
2023/05/12 07:59:49;;;;;;;20.13;6.85;;;14.60;99.90;;;;;;5090613;28;20212;-69
2023/05/12 08:02:16;;;;;;;15.35;6.80;;;14.70;99.90;;;;;;5082009;28;20601;-68
2023/05/12 08:04:42;;;;;;;13.73;6.63;;;14.70;99.90;;;;;;5070984;28;20258;-61
2023/05/12 08:07:07;;;;;;;16.02;7.50;;;14.90;99.90;;;;;;5073865;28;20574;-61
2023/05/12 08:09:34;;;;;;;14.13;6.35;;;15.30;99.90;;;;;;5090958;28;20232;-61
2023/05/12 08:12:00;;;;;;;17.98;7.13;;;15.30;99.90;;;;;;5089331;28;20569;-71
2023/05/12 08:14:26;;;;;;;16.02;7.22;;;15.40;99.90;;;;;;5086031;28;20190;-70
2023/05/12 08:16:51;;;;;;;18.02;8.25;;;15.10;99.90;;;;;;5090446;28;20204;-69
2023/05/12 08:19:17;;;;;;;18.40;7.35;;;15.20;99.90;;;;;;5088636;28;20635;-63
2023/05/12 08:21:42;;;;;;;17.95;11.27;;;15.20;99.90;;;;;;5090670;28;20172;-64
2023/05/12 08:24:08;;;;;;;13.88;7.50;;;15.60;99.90;;;;;;5066740;28;20176;-64
2023/05/12 08:26:34;;;;;;;12.48;7.13;;;15.40;99.90;;;;;;5082899;28;20688;-64
2023/05/12 08:29:00;;;;;;;13.45;6.50;;;15.70;99.90;;;;;;5086604;28;20366;-64
2023/05/12 08:31:26;;;;;;;12.55;6.03;;;16.30;99.90;;;;;;5090887;28;20556;-64
2023/05/12 08:33:52;;;;;;;14.35;6.45;;;17.20;99.90;;;;;;5090719;28;20194;-64
2023/05/12 08:36:17;;;;;;;13.20;5.85;;;17.70;99.90;;;;;;5089241;28;20240;-63
2023/05/12 08:38:43;;;;;;;12.02;5.93;;;18.20;99.90;;;;;;5090869;28;20164;-63
2023/05/12 08:41:26;;;;;;;14.27;6.40;;;18.10;1.00;;;;;;5090643;28;20176;-62
2023/05/12 08:43:52;;;;;;;14.68;6.78;;;17.50;1.00;;;;;;5090659;28;20175;-63
2023/05/12 08:46:18;;;;;;;14.23;6.65;;;16.80;1.00;;;;;;5088929;28;20186;-64
2023/05/12 08:48:49;;;;;;;13.25;6.28;;;16.80;1.00;;;;;;5082897;28;20218;-63
2023/05/12 08:51:16;;;;;;;15.43;6.78;;;17.30;1.00;;;;;;5090660;28;20246;-63
2023/05/12 08:53:42;;;;;;;13.82;6.28;;;17.70;1.00;;;;;;5087509;28;20202;-63
2023/05/12 08:56:09;;;;;;;15.18;6.22;;;17.80;1.00;;;;;;5069972;28;20629;-63
2023/05/12 08:58:36;;;;;;;11.25;6.35;;;17.40;1.00;;;;;;5070500;28;20238;-64
2023/05/12 09:01:04;;;;;;;14.63;7.38;;;17.00;99.90;;;;;;5080518;28;20172;-62
2023/05/12 09:03:29;;;;;;;10.57;6.00;;;17.30;99.90;;;;;;5060780;28;20173;-62
2023/05/12 09:05:57;;;;;;;15.93;7.30;;;17.80;99.90;;;;;;5086336;28;20172;-63
2023/05/12 09:08:24;;;;;;;11.00;6.55;;;18.70;1.00;;;;;;5077668;28;20270;-63
2023/05/12 09:10:50;;;;;;;17.10;7.15;;;18.70;1.00;;;;;;5073335;28;20172;-64
2023/05/12 09:13:22;;;;;;;15.88;7.88;;;18.90;1.00;;;;;;5089686;28;20180;-64
2023/05/12 09:15:52;;;;;;;16.95;7.18;;;18.80;1.00;;;;;;5089225;28;20176;-64
2023/05/12 09:18:17;;;;;;;15.77;8.00;;;19.00;99.90;;;;;;5082580;28;20184;-64
2023/05/12 09:20:43;;;;;;;16.13;7.90;;;18.40;1.00;;;;;;5071036;28;20519;-64
2023/05/12 09:23:19;;;;;;;13.20;7.88;;;18.50;1.00;;;;;;5074182;28;20188;-64
2023/05/12 09:25:48;;;;;;;15.02;7.85;;;18.50;1.00;;;;;;5087332;28;20203;-64
2023/05/12 09:28:14;;;;;;;14.02;7.65;;;17.80;1.00;;;;;;5073508;28;20237;-66
2023/05/12 09:30:41;;;;;;;15.63;7.90;;;18.20;1.00;;;;;;5083355;28;20207;-64
2023/05/12 09:33:11;;;;;;;18.02;8.77;;;18.50;1.00;;;;;;5082647;28;20184;-64
2023/05/12 09:35:42;;;;;;;15.07;7.60;;;18.60;99.90;;;;;;5080389;28;20251;-64
2023/05/12 09:38:12;;;;;;;17.77;8.57;;;18.90;1.00;;;;;;5081338;28;20172;-63
2023/05/12 09:40:38;;;;;;;17.23;8.18;;;18.40;11.70;;;;;;5093208;28;20184;-63
2023/05/12 09:43:07;;;;;;;16.80;8.25;;;18.30;99.90;;;;;;5093013;28;20191;-63
2023/05/12 09:45:41;;;;;;;16.67;8.95;;;18.00;1.00;;;;;;5093650;28;20184;-62
2023/05/12 09:48:09;;;;;;;15.10;7.75;;;17.90;99.90;;;;;;5093428;28;20297;-63
2023/05/12 09:50:45;;;;;;;17.13;8.82;;;18.10;61.90;;;;;;5093401;28;20658;-63
2023/05/12 09:53:11;;;;;;;13.68;7.43;;;18.50;1.00;;;;;;5093625;28;20220;-63
2023/05/12 09:55:37;;;;;;;17.70;9.35;;;18.60;99.90;;;;;;5093608;28;20255;-63
2023/05/12 09:58:08;;;;;;;20.50;8.73;;;18.90;97.00;;;;;;5093285;28;20176;-64
2023/05/12 10:00:37;;;;;;;17.08;9.20;;;18.30;99.90;;;;;;5093503;28;20172;-64
2023/05/12 10:03:12;;;;;;;16.08;8.18;;;18.30;1.00;;;;;;5074966;28;20670;-63
2023/05/12 10:05:49;;;;;;;22.90;8.80;;;18.20;1.00;;;;;;5093319;28;20221;-63
2023/05/12 10:08:23;;;;;;;15.88;8.95;;;18.50;1.00;;;;;;5093314;28;20230;-64
2023/05/12 10:10:51;;;;;;;14.18;7.93;;;18.60;1.00;;;;;;5093236;28;20160;-62
2023/05/12 10:13:17;;;;;;;17.10;8.68;;;18.90;1.00;;;;;;5092903;28;20187;-63
2023/05/12 10:15:45;;;;;;;16.38;8.23;;;19.50;19.50;;;;;;5092887;28;20180;-63
2023/05/12 10:18:11;;;;;;;19.65;8.55;;;18.90;99.90;;;;;;5093071;28;20183;-64
2023/05/12 10:20:38;;;;;;;17.65;8.30;;;18.30;99.90;;;;;;5093196;28;20168;-63
2023/05/12 10:23:06;;;;;;;13.45;8.13;;;18.20;1.00;;;;;;5092855;28;20166;-64
2023/05/12 10:25:32;;;;;;;14.05;7.57;;;18.00;99.90;;;;;;5089321;28;20172;-63
2023/05/12 10:28:00;;;;;;;16.33;7.97;;;18.50;99.90;;;;;;5072681;28;20212;-64
2023/05/12 10:30:26;;;;;;;13.70;7.30;;;18.70;1.00;;;;;;5072734;28;20173;-64
2023/05/12 10:32:56;;;;;;;13.07;7.10;;;19.20;1.00;;;;;;5072441;28;20172;-63
2023/05/12 10:35:31;;;;;;;11.30;7.07;;;20.10;99.90;;;;;;5087575;28;20257;-63
2023/05/12 10:38:03;;;;;;;15.48;7.20;;;20.80;1.00;;;;;;5072484;28;20176;-63
2023/05/12 10:40:28;;;;;;;13.05;6.88;;;21.80;1.00;;;;;;5072492;28;20164;-63
2023/05/12 10:42:58;;;;;;;13.10;6.20;;;21.80;1.00;;;;;;5072302;28;20188;-64
2023/05/12 10:45:24;;;;;;;13.35;6.63;;;21.70;1.00;;;;;;5072237;28;20219;-64
2023/05/12 10:47:51;;;;;;;13.88;5.70;;;21.90;99.90;;;;;;5072945;28;20212;-64
2023/05/12 10:50:27;;;;;;;10.27;5.50;;;22.30;99.90;;;;;;5054061;28;20173;-63
2023/05/12 10:52:56;;;;;;;9.55;5.63;;;22.40;1.00;;;;;;5071756;28;20234;-63
2023/05/12 10:55:46;;;;;;;12.88;5.45;;;22.40;1.00;;;;;;5072058;28;20251;-64
2023/05/12 10:58:16;;;;;;;21.90;6.00;;;21.80;1.00;;;;;;5072018;28;20198;-64
2023/05/12 11:00:44;;;;;;;20.15;6.45;;;21.50;1.00;;;;;;5079457;28;20255;-64
2023/05/12 11:03:15;;;;;;;10.40;4.55;;;21.70;1.00;;;;;;5092177;28;20196;-63
2023/05/12 11:05:42;;;;;;;17.42;5.55;;;22.40;1.00;;;;;;5073875;28;20709;-63
2023/05/12 11:08:08;;;;;;;19.02;5.90;;;22.90;1.00;;;;;;5087856;28;20227;-63
2023/05/12 11:10:33;;;;;;;16.85;6.05;;;23.00;1.00;;;;;;5071710;28;20605;-63
2023/05/12 11:12:59;;;;;;;14.32;5.35;;;22.30;99.90;;;;;;5071768;28;20649;-63
2023/05/12 11:15:27;;;;;;;17.48;6.15;;;22.10;99.90;;;;;;5071747;28;20685;-63
2023/05/12 11:17:52;;;;;;;21.13;6.38;;;21.90;1.00;;;;;;5071641;28;20203;-64
2023/05/12 11:20:25;;;;;;;12.15;5.75;;;22.10;1.00;;;;;;5053725;28;20657;-64
2023/05/12 11:22:52;;;;;;;11.52;6.63;;;21.60;1.00;;;;;;5071496;28;20168;-64
2023/05/12 11:25:18;;;;;;;16.80;6.88;;;22.00;1.00;;;;;;5053470;28;20204;-64
2023/05/12 11:27:50;;;;;;;11.43;5.85;;;21.80;1.00;;;;;;5088705;28;20234;-62
2023/05/12 11:30:16;;;;;;;25.05;6.40;;;21.50;99.90;;;;;;5084588;28;20183;-64
2023/05/12 11:32:42;;;;;;;21.65;6.88;;;21.40;99.90;;;;;;5084554;28;20534;-62
2023/05/12 11:35:13;;;;;;;10.50;5.75;;;21.90;99.90;;;;;;5071224;28;20212;-63
2023/05/12 11:37:40;;;;;;;15.50;6.43;;;22.10;99.90;;;;;;5071213;28;20157;-63
2023/05/12 11:40:21;;;;;;;10.05;6.07;;;21.90;99.90;;;;;;5079586;28;20257;-64
2023/05/12 11:42:54;;;;;;;14.70;5.78;;;22.20;99.90;;;;;;5090949;28;20180;-64
2023/05/12 11:45:28;;;;;;;27.45;7.18;;;23.10;1.00;;;;;;5076701;28;20168;-64
2023/05/12 11:48:13;;;;;;;15.23;6.50;;;23.20;1.00;;;;;;5075220;28;20285;-64
2023/05/12 11:50:47;;;;;;;13.75;6.05;;;23.40;1.00;;;;;;5090551;28;20525;-63
2023/05/12 11:53:17;;;;;;;12.07;6.13;;;22.70;1.00;;;;;;5085593;28;20207;-63
2023/05/12 11:56:01;;;;;;;18.00;6.60;;;22.00;1.00;;;;;;5076051;28;20218;-64
2023/05/12 11:58:29;;;;;;;17.98;6.43;;;22.00;1.00;;;;;;5070844;28;20251;-64
2023/05/12 12:00:56;;;;;;;10.80;5.93;;;22.30;99.90;;;;;;5071102;28;20176;-64
2023/05/12 12:03:23;;;;;;;14.40;6.90;;;23.40;1.00;;;;;;5070796;28;20545;-63
2023/05/12 12:06:00;;;;;;;11.48;5.78;;;23.00;1.00;;;;;;5080507;28;20226;-64
2023/05/12 12:08:26;;;;;;;11.60;4.57;;;23.00;1.00;;;;;;5088894;28;20296;-64
2023/05/12 12:10:51;;;;;;;7.03;3.70;;;23.90;1.00;;;;;;5087246;28;20195;-64
2023/05/12 12:13:22;;;;;;;7.18;3.88;;;24.30;1.00;;;;;;5091015;28;20715;-65
2023/05/12 12:15:49;;;;;;;7.07;3.45;;;23.80;99.90;;;;;;5079019;28;20180;-65
2023/05/12 12:18:17;;;;;;;11.27;4.70;;;22.70;99.90;;;;;;5070788;28;20169;-64
2023/05/12 12:20:44;;;;;;;9.40;4.90;;;22.00;1.00;;;;;;5070982;28;20180;-64
2023/05/12 12:23:09;;;;;;;14.05;5.85;;;21.30;1.00;;;;;;5070529;28;20640;-64
2023/05/12 12:25:36;;;;;;;13.10;5.72;;;21.90;1.00;;;;;;5070610;28;20252;-64
2023/05/12 12:28:02;;;;;;;13.55;5.85;;;22.00;1.00;;;;;;5070393;28;20204;-64
2023/05/12 12:30:27;;;;;;;10.10;5.60;;;23.10;1.00;;;;;;5077410;28;20183;-64
2023/05/12 12:32:53;;;;;;;11.57;6.07;;;23.40;1.00;;;;;;5090838;28;20168;-64
2023/05/12 12:35:18;;;;;;;9.27;5.82;;;23.60;99.90;;;;;;5082918;28;20341;-63
2023/05/12 12:37:50;;;;;;;12.20;6.07;;;24.60;1.00;;;;;;5070287;28;20198;-64